Time;durP1;ratioP1;P1;durP2;ratioP2;P2;SDS_P1;SDS_P2;PMS_P1;PMS_P2;Temp;Humidity;BMP_temperature;BMP_pressure;BME280_temperature;BME280_humidity;BME280_pressure;Samples;Min_cycle;Max_cycle;Signal;HPM_P1;HPM_P2
2022/05/18 00:00:32;;;;;;;19.48;11.43;;;18.20;99.90;;;;;;5078233;28;20048;-64
2022/05/18 00:03:05;;;;;;;14.82;10.95;;;18.20;99.90;;;;;;5094830;28;20051;-61
2022/05/18 00:05:36;;;;;;;17.15;11.73;;;18.20;99.90;;;;;;5113200;28;20126;-63
2022/05/18 00:08:01;;;;;;;16.17;11.48;;;18.10;99.90;;;;;;5113284;28;20081;-61
2022/05/18 00:10:28;;;;;;;14.02;10.65;;;18.10;99.90;;;;;;5113143;28;20090;-61
2022/05/18 00:12:53;;;;;;;12.23;9.90;;;18.00;99.90;;;;;;5112651;28;20115;-61
2022/05/18 00:15:21;;;;;;;13.77;9.63;;;18.00;99.90;;;;;;5112711;28;20614;-62
2022/05/18 00:17:47;;;;;;;15.00;9.73;;;18.00;99.90;;;;;;5112372;28;20040;-61
2022/05/18 00:20:14;;;;;;;13.07;9.45;;;18.00;99.90;;;;;;5112596;28;20089;-61
2022/05/18 00:23:01;;;;;;;16.77;9.98;;;18.00;99.90;;;;;;5112233;28;20063;-63
2022/05/18 00:25:31;;;;;;;13.18;9.00;;;18.00;99.90;;;;;;5094720;28;20039;-61
2022/05/18 00:27:57;;;;;;;13.15;9.30;;;18.00;99.90;;;;;;5112420;28;20073;-61
2022/05/18 00:30:25;;;;;;;12.63;8.68;;;17.90;99.90;;;;;;5094477;28;20043;-60
2022/05/18 00:32:51;;;;;;;12.68;9.45;;;17.80;99.90;;;;;;5112153;28;20055;-61
2022/05/18 00:35:17;;;;;;;11.65;8.55;;;17.80;99.90;;;;;;5112356;28;20046;-61
2022/05/18 00:37:43;;;;;;;12.88;8.02;;;17.80;99.90;;;;;;5112181;28;20043;-61
2022/05/18 00:40:11;;;;;;;12.77;8.05;;;17.80;99.90;;;;;;5094570;28;20043;-62
2022/05/18 00:42:37;;;;;;;12.60;7.75;;;17.70;99.90;;;;;;5111985;28;20050;-64
2022/05/18 00:45:04;;;;;;;11.88;7.53;;;17.70;99.90;;;;;;5111971;28;20541;-61
2022/05/18 00:47:30;;;;;;;13.70;7.97;;;17.70;99.90;;;;;;5094064;28;20056;-61
2022/05/18 00:50:07;;;;;;;13.23;7.28;;;17.60;99.90;;;;;;5094037;28;20627;-61
2022/05/18 00:52:37;;;;;;;9.35;6.80;;;17.60;99.90;;;;;;5111474;28;20056;-61
2022/05/18 00:55:04;;;;;;;11.90;6.85;;;17.60;99.90;;;;;;5111979;28;20082;-61
2022/05/18 00:57:36;;;;;;;10.82;6.95;;;17.60;99.90;;;;;;5112134;28;20362;-61
2022/05/18 01:00:10;;;;;;;12.98;7.15;;;17.50;99.90;;;;;;5111494;28;20043;-61
2022/05/18 01:02:39;;;;;;;10.40;7.20;;;17.50;99.90;;;;;;5094161;28;20048;-62
2022/05/18 01:05:09;;;;;;;11.18;6.60;;;17.50;99.90;;;;;;5094204;28;20044;-61
2022/05/18 01:07:40;;;;;;;13.82;6.38;;;17.50;99.90;;;;;;5111886;28;20090;-60
2022/05/18 01:10:07;;;;;;;12.13;7.13;;;17.50;99.90;;;;;;5112252;28;20381;-61
2022/05/18 01:12:33;;;;;;;12.18;6.55;;;17.50;99.90;;;;;;5093862;28;20430;-60
2022/05/18 01:15:09;;;;;;;9.77;6.03;;;17.50;99.90;;;;;;5093452;28;20403;-60
2022/05/18 01:17:38;;;;;;;10.88;6.35;;;17.40;99.90;;;;;;5111655;28;20050;-60
2022/05/18 01:20:10;;;;;;;11.65;6.30;;;17.40;99.90;;;;;;5093773;28;20134;-61
2022/05/18 01:22:50;;;;;;;10.90;5.68;;;17.40;99.90;;;;;;5111983;28;20051;-60
2022/05/18 01:25:21;;;;;;;11.82;6.20;;;17.40;99.90;;;;;;5112041;28;20083;-60
2022/05/18 01:27:47;;;;;;;12.00;6.38;;;17.40;99.90;;;;;;5111343;28;20048;-61
2022/05/18 01:30:13;;;;;;;10.93;6.07;;;17.30;99.90;;;;;;5111995;28;20090;-60
2022/05/18 01:32:46;;;;;;;11.50;5.90;;;17.30;99.90;;;;;;5093714;28;20090;-60
2022/05/18 01:35:15;;;;;;;9.52;5.72;;;17.30;99.90;;;;;;5111813;28;20048;-61
2022/05/18 01:37:41;;;;;;;13.60;6.38;;;17.30;99.90;;;;;;5111668;28;20043;-61
2022/05/18 01:40:30;;;;;;;9.57;5.68;;;17.30;99.90;;;;;;5076396;28;20150;-62
2022/05/18 01:43:13;;;;;;;11.63;5.72;;;17.30;99.90;;;;;;5061386;28;20056;-61
2022/05/18 01:45:39;;;;;;;12.68;5.63;;;17.20;99.90;;;;;;5111618;28;20047;-61
2022/05/18 01:48:13;;;;;;;8.38;5.97;;;17.20;99.90;;;;;;5111279;28;20039;-60
2022/05/18 01:50:41;;;;;;;9.43;5.57;;;17.20;99.90;;;;;;5111634;28;20118;-61
2022/05/18 01:53:07;;;;;;;8.70;5.78;;;17.20;99.90;;;;;;5112551;28;20047;-60
2022/05/18 01:55:33;;;;;;;7.00;5.40;;;17.20;99.90;;;;;;5097459;28;20400;-61
2022/05/18 01:58:00;;;;;;;11.90;5.93;;;17.20;99.90;;;;;;5115312;28;20047;-60
2022/05/18 02:00:27;;;;;;;12.15;6.15;;;17.20;99.90;;;;;;5097520;28;20054;-61
2022/05/18 02:02:53;;;;;;;8.45;5.55;;;17.20;99.90;;;;;;5115095;28;20408;-61
2022/05/18 02:05:19;;;;;;;9.85;5.15;;;17.10;99.90;;;;;;5097289;28;20040;-62
2022/05/18 02:07:44;;;;;;;10.80;5.63;;;17.10;99.90;;;;;;5097285;28;20412;-62
2022/05/18 02:10:11;;;;;;;7.45;5.28;;;17.10;99.90;;;;;;5114612;28;20134;-61
2022/05/18 02:12:37;;;;;;;9.95;5.15;;;17.10;99.90;;;;;;5114999;28;20093;-61
2022/05/18 02:15:03;;;;;;;9.25;4.93;;;17.10;99.90;;;;;;5114496;28;20541;-61
2022/05/18 02:17:30;;;;;;;7.93;5.25;;;17.10;99.90;;;;;;5097128;28;20051;-61
2022/05/18 02:19:57;;;;;;;11.00;5.18;;;17.00;99.90;;;;;;5114862;28;20040;-61
2022/05/18 02:22:24;;;;;;;11.63;5.72;;;17.00;99.90;;;;;;5096822;28;20039;-63
2022/05/18 02:24:50;;;;;;;10.10;5.68;;;17.00;99.90;;;;;;5114727;28;20073;-65
2022/05/18 02:27:16;;;;;;;9.38;5.50;;;16.90;99.90;;;;;;5114825;28;20035;-60
2022/05/18 02:29:41;;;;;;;7.72;5.53;;;16.90;99.90;;;;;;5114791;28;20485;-59
2022/05/18 02:32:09;;;;;;;8.02;5.45;;;16.90;99.90;;;;;;5096364;28;20044;-60
2022/05/18 02:34:35;;;;;;;8.85;5.45;;;16.90;99.90;;;;;;5096965;28;20366;-59
2022/05/18 02:37:01;;;;;;;9.52;5.75;;;16.90;99.90;;;;;;5114455;28;20081;-61
2022/05/18 02:39:27;;;;;;;8.45;5.50;;;16.90;99.90;;;;;;5080084;28;20040;-61
2022/05/18 02:41:52;;;;;;;9.75;5.50;;;16.80;99.90;;;;;;5114147;28;20040;-65
2022/05/18 02:44:19;;;;;;;10.40;5.43;;;16.80;99.90;;;;;;5114638;28;20134;-62
2022/05/18 02:46:45;;;;;;;10.52;5.72;;;16.80;99.90;;;;;;5096783;28;20158;-59
2022/05/18 02:49:11;;;;;;;12.02;5.35;;;16.70;99.90;;;;;;5114176;28;20039;-60
2022/05/18 02:51:39;;;;;;;9.27;5.18;;;16.70;99.90;;;;;;5113942;28;20085;-59
2022/05/18 02:56:05;;;;;;;9.55;5.60;;;16.70;99.90;;;;;;5114270;28;20424;-61
2022/05/18 02:56:52;;;;;;;7.93;4.78;;;16.70;99.90;;;;;;5099612;28;20067;-61
2022/05/18 02:59:19;;;;;;;8.25;4.90;;;16.70;99.90;;;;;;5114208;28;20093;-61
2022/05/18 03:01:45;;;;;;;7.63;5.00;;;16.70;99.90;;;;;;5114219;28;20048;-59
2022/05/18 03:04:12;;;;;;;10.38;5.25;;;16.60;99.90;;;;;;5112806;28;20047;-60
2022/05/18 03:06:40;;;;;;;8.90;4.93;;;16.70;99.90;;;;;;5114393;28;20043;-61
2022/05/18 03:09:06;;;;;;;11.77;5.20;;;16.60;99.90;;;;;;5114018;28;20153;-60
2022/05/18 03:11:32;;;;;;;8.75;5.65;;;16.60;99.90;;;;;;5114090;28;20122;-60
2022/05/18 03:13:57;;;;;;;9.25;5.28;;;16.60;99.90;;;;;;5078945;28;20495;-61
2022/05/18 03:16:25;;;;;;;8.73;5.40;;;16.60;99.90;;;;;;5096284;28;20050;-61
2022/05/18 03:18:51;;;;;;;7.60;5.45;;;16.60;99.90;;;;;;5114264;28;20147;-62
2022/05/18 03:24:02;;;;;;;9.50;5.05;;;16.60;99.90;;;;;;5098022;28;20488;-61
2022/05/18 03:26:27;;;;;;;8.10;5.57;;;16.60;99.90;;;;;;5079025;28;20051;-62
2022/05/18 03:28:57;;;;;;;8.07;5.85;;;16.60;99.90;;;;;;5095374;28;20051;-61
2022/05/18 03:31:24;;;;;;;10.13;5.85;;;16.60;99.90;;;;;;5113259;28;20054;-61
2022/05/18 03:33:51;;;;;;;7.78;5.78;;;16.60;99.90;;;;;;5113585;28;20043;-61
2022/05/18 03:36:18;;;;;;;9.70;6.22;;;16.60;99.90;;;;;;5113204;28;20108;-61
2022/05/18 03:38:45;;;;;;;7.50;5.22;;;16.50;99.90;;;;;;5095488;28;20431;-61
2022/05/18 03:41:12;;;;;;;9.65;5.93;;;16.50;99.90;;;;;;5095054;28;20047;-61
2022/05/18 03:43:38;;;;;;;7.55;5.25;;;16.50;99.90;;;;;;5113604;28;20040;-61
2022/05/18 03:46:05;;;;;;;11.50;5.75;;;16.50;99.90;;;;;;5113262;28;20134;-61
2022/05/18 03:48:32;;;;;;;8.98;5.72;;;16.50;99.90;;;;;;5095560;28;20043;-60
2022/05/18 03:50:59;;;;;;;10.15;5.70;;;16.50;99.90;;;;;;5113393;28;20039;-63
2022/05/18 03:53:26;;;;;;;12.07;5.90;;;16.50;99.90;;;;;;5113089;28;20063;-62
2022/05/18 03:55:52;;;;;;;9.77;5.38;;;16.50;99.90;;;;;;5113491;28;20080;-60
2022/05/18 03:58:19;;;;;;;8.48;5.60;;;16.50;99.90;;;;;;5094942;28;20059;-61
2022/05/18 04:00:46;;;;;;;8.27;5.55;;;16.50;99.90;;;;;;5113261;28;20047;-62
2022/05/18 04:03:14;;;;;;;9.02;5.80;;;16.50;99.90;;;;;;5112630;28;20428;-61
2022/05/18 04:05:40;;;;;;;8.10;5.72;;;16.50;99.90;;;;;;5094914;28;20055;-61
2022/05/18 04:08:08;;;;;;;9.95;5.80;;;16.50;99.90;;;;;;5094678;28;20090;-63
2022/05/18 04:10:34;;;;;;;7.82;5.75;;;16.50;99.90;;;;;;5112999;28;20046;-61
2022/05/18 04:13:00;;;;;;;8.25;5.97;;;16.50;99.90;;;;;;5113053;28;20093;-61
2022/05/18 04:15:27;;;;;;;8.32;5.93;;;16.50;99.90;;;;;;5112373;28;20078;-62
2022/05/18 04:17:53;;;;;;;11.13;6.03;;;16.50;99.90;;;;;;5112824;28;20055;-61
2022/05/18 04:20:21;;;;;;;10.63;5.72;;;16.50;99.90;;;;;;5112451;28;20043;-60
2022/05/18 04:22:48;;;;;;;9.00;6.78;;;16.50;99.90;;;;;;5112583;28;20050;-61
2022/05/18 04:25:17;;;;;;;8.50;6.13;;;16.50;99.90;;;;;;5112272;28;20177;-62
2022/05/18 04:27:43;;;;;;;9.18;6.28;;;16.60;99.90;;;;;;5094621;28;20423;-61
2022/05/18 04:30:10;;;;;;;9.40;6.28;;;16.70;99.90;;;;;;5112233;28;20079;-61
2022/05/18 04:32:38;;;;;;;9.52;6.38;;;16.70;99.90;;;;;;5112510;28;20043;-61
2022/05/18 04:35:05;;;;;;;9.18;6.32;;;16.90;99.90;;;;;;5112479;28;20549;-62
2022/05/18 04:37:31;;;;;;;9.85;6.20;;;17.00;99.90;;;;;;5112632;28;20063;-60
2022/05/18 04:39:56;;;;;;;8.95;5.65;;;17.30;99.90;;;;;;5094156;28;20062;-61
2022/05/18 04:42:22;;;;;;;10.10;5.55;;;17.70;99.90;;;;;;5094040;28;20043;-62
2022/05/18 04:44:50;;;;;;;8.90;5.32;;;18.10;99.90;;;;;;5112374;28;20055;-61
2022/05/18 04:47:19;;;;;;;7.68;5.32;;;18.60;99.90;;;;;;5111886;28;20040;-62
2022/05/18 04:49:45;;;;;;;10.65;5.78;;;19.20;99.90;;;;;;5093899;28;20047;-61
2022/05/18 04:52:11;;;;;;;8.63;5.35;;;19.70;99.90;;;;;;5111278;28;20538;-61
2022/05/18 04:54:36;;;;;;;10.13;4.60;;;19.90;99.90;;;;;;5112179;28;20081;-62
2022/05/18 04:57:02;;;;;;;7.45;5.20;;;20.20;99.90;;;;;;5112027;28;20547;-62
2022/05/18 04:59:28;;;;;;;9.75;5.13;;;20.60;99.90;;;;;;5111893;28;20041;-61
2022/05/18 05:01:55;;;;;;;7.47;5.45;;;20.80;99.90;;;;;;5094250;28;20047;-61
2022/05/18 05:04:21;;;;;;;7.63;5.20;;;21.10;99.90;;;;;;5093853;28;20059;-61
2022/05/18 05:06:46;;;;;;;8.60;5.45;;;21.40;99.90;;;;;;5077197;28;20052;-61
2022/05/18 05:09:12;;;;;;;8.57;5.20;;;21.60;99.90;;;;;;5093377;28;20047;-61
2022/05/18 05:11:38;;;;;;;7.90;5.22;;;21.80;99.90;;;;;;5111834;28;20048;-61
2022/05/18 05:14:05;;;;;;;10.25;4.47;;;21.90;99.90;;;;;;5112105;28;20438;-62
2022/05/18 05:16:32;;;;;;;10.63;5.15;;;22.00;99.90;;;;;;5111818;28;20092;-61
2022/05/18 05:18:58;;;;;;;10.52;5.60;;;22.20;99.90;;;;;;5111198;28;20569;-62
2022/05/18 05:21:23;;;;;;;7.57;5.57;;;22.10;99.90;;;;;;5111474;28;20083;-61
2022/05/18 05:23:49;;;;;;;8.05;5.32;;;21.80;99.90;;;;;;5111713;28;20071;-61
2022/05/18 05:26:15;;;;;;;8.95;5.50;;;21.60;99.90;;;;;;5093595;28;20048;-61
2022/05/18 05:28:41;;;;;;;10.45;5.22;;;21.50;99.90;;;;;;5076516;28;20066;-61
2022/05/18 05:31:09;;;;;;;7.85;5.85;;;21.80;99.90;;;;;;5076883;28;20105;-61
2022/05/18 05:33:39;;;;;;;9.43;5.78;;;22.50;99.90;;;;;;5111571;28;20054;-62
2022/05/18 05:36:05;;;;;;;12.50;5.95;;;23.30;99.90;;;;;;5093721;28;20141;-63
2022/05/18 05:38:31;;;;;;;14.27;6.10;;;23.80;99.90;;;;;;5076564;28;20048;-62
2022/05/18 05:41:00;;;;;;;8.98;4.90;;;24.40;99.90;;;;;;5111804;28;20104;-61
2022/05/18 05:43:26;;;;;;;7.88;5.20;;;24.90;99.90;;;;;;5093085;28;20109;-61
2022/05/18 05:45:58;;;;;;;9.93;5.60;;;25.50;99.90;;;;;;5077070;28;20071;-60
2022/05/18 05:48:25;;;;;;;11.00;5.32;;;25.90;99.90;;;;;;5111236;28;20044;-63
2022/05/18 05:50:50;;;;;;;10.93;5.30;;;25.90;99.90;;;;;;5093388;28;20048;-61
2022/05/18 05:53:16;;;;;;;9.68;5.43;;;26.10;98.90;;;;;;5110990;28;20077;-68
2022/05/18 05:55:42;;;;;;;10.00;5.15;;;26.30;98.00;;;;;;5093370;28;20153;-61
2022/05/18 05:58:08;;;;;;;12.20;5.05;;;26.50;98.10;;;;;;5111692;28;20395;-61
2022/05/18 06:00:34;;;;;;;9.10;4.80;;;26.60;97.20;;;;;;5092699;28;20134;-61
2022/05/18 06:02:59;;;;;;;7.03;4.38;;;26.60;98.20;;;;;;5111235;28;20058;-62
2022/05/18 06:05:25;;;;;;;7.25;5.10;;;27.00;97.20;;;;;;5076387;28;20374;-61
2022/05/18 06:07:51;;;;;;;7.68;5.30;;;27.10;97.00;;;;;;5093494;28;20153;-61
2022/05/18 06:10:17;;;;;;;7.03;4.63;;;27.30;97.10;;;;;;5111128;28;20057;-66
2022/05/18 06:12:42;;;;;;;7.32;4.95;;;27.50;95.90;;;;;;5110804;28;20039;-61
2022/05/18 06:15:11;;;;;;;7.28;5.10;;;28.00;95.30;;;;;;5111133;28;20549;-60
2022/05/18 06:17:37;;;;;;;8.15;5.18;;;28.20;95.90;;;;;;5111058;28;20047;-60
2022/05/18 06:20:03;;;;;;;6.97;4.15;;;28.50;94.90;;;;;;5111082;28;20446;-61
2022/05/18 06:22:29;;;;;;;6.05;4.18;;;28.60;94.20;;;;;;5111003;28;20089;-61
2022/05/18 06:24:54;;;;;;;10.68;5.28;;;28.20;95.00;;;;;;5111274;28;20043;-61
2022/05/18 06:27:21;;;;;;;7.82;5.03;;;28.60;94.80;;;;;;5111103;28;20101;-63
2022/05/18 06:29:48;;;;;;;8.52;5.32;;;28.80;94.50;;;;;;5111288;28;20131;-60
2022/05/18 06:32:14;;;;;;;7.50;4.68;;;29.10;93.30;;;;;;5110703;28;20548;-61
2022/05/18 06:34:41;;;;;;;9.13;4.93;;;29.10;93.10;;;;;;5092816;28;20063;-61
2022/05/18 06:37:07;;;;;;;7.40;4.95;;;29.50;93.10;;;;;;5110979;28;20100;-63
2022/05/18 06:39:33;;;;;;;11.95;5.78;;;29.60;92.80;;;;;;5112932;28;20067;-62
2022/05/18 06:41:59;;;;;;;7.45;5.45;;;29.70;92.90;;;;;;5114753;28;20477;-62
2022/05/18 06:44:25;;;;;;;9.05;5.30;;;30.10;91.90;;;;;;5096169;28;20058;-61
2022/05/18 06:46:52;;;;;;;11.13;5.45;;;30.40;91.50;;;;;;5114542;28;20043;-62
2022/05/18 06:49:19;;;;;;;8.13;5.50;;;30.40;92.00;;;;;;5114867;28;20047;-62
2022/05/18 06:51:46;;;;;;;7.93;4.93;;;30.80;90.80;;;;;;5114199;28;20396;-62
2022/05/18 06:54:14;;;;;;;7.82;5.60;;;31.10;91.20;;;;;;5114518;28;20056;-61
2022/05/18 06:56:42;;;;;;;8.75;6.18;;;31.40;90.60;;;;;;5114040;28;20047;-62
2022/05/18 06:59:09;;;;;;;8.95;5.20;;;31.40;88.70;;;;;;5114432;28;20040;-63
2022/05/18 07:01:35;;;;;;;7.88;6.03;;;31.80;89.00;;;;;;5114036;28;20058;-62
2022/05/18 07:04:03;;;;;;;7.18;5.50;;;31.80;89.10;;;;;;5114452;28;20040;-63
2022/05/18 07:06:32;;;;;;;9.98;5.90;;;31.50;88.20;;;;;;5113695;28;20052;-62
2022/05/18 07:08:58;;;;;;;9.88;4.90;;;31.50;88.10;;;;;;5096221;28;20495;-62
2022/05/18 07:11:24;;;;;;;7.07;4.35;;;31.50;88.60;;;;;;5079356;28;20134;-62
2022/05/18 07:13:53;;;;;;;10.25;6.60;;;31.90;88.00;;;;;;5079266;28;20048;-62
2022/05/18 07:16:20;;;;;;;8.75;6.20;;;;;;;;;;5114283;28;20051;-60
2022/05/18 07:18:47;;;;;;;9.55;6.40;;;31.90;86.70;;;;;;5113698;28;20121;-61
2022/05/18 07:21:14;;;;;;;9.10;6.25;;;32.90;85.50;;;;;;5113921;28;20122;-61
2022/05/18 07:23:40;;;;;;;10.15;5.97;;;33.10;85.40;;;;;;5113562;28;20195;-61
2022/05/18 07:26:07;;;;;;;12.63;6.25;;;33.30;84.30;;;;;;5114095;28;20055;-63
2022/05/18 07:28:33;;;;;;;11.00;6.10;;;33.70;83.30;;;;;;5092804;28;20055;-64
2022/05/18 07:30:59;;;;;;;11.60;6.07;;;33.60;83.20;;;;;;5112823;28;20079;-62
2022/05/18 07:33:26;;;;;;;11.00;6.47;;;33.60;81.80;;;;;;5113507;28;20090;-62
2022/05/18 07:35:53;;;;;;;8.88;5.93;;;33.50;81.80;;;;;;5112957;28;20048;-62
2022/05/18 07:38:24;;;;;;;8.25;5.68;;;33.60;81.20;;;;;;5113113;28;20044;-63
2022/05/18 07:40:51;;;;;;;9.45;6.78;;;33.80;79.80;;;;;;5094760;28;20594;-62
2022/05/18 07:43:18;;;;;;;10.45;6.28;;;33.70;79.20;;;;;;5113168;28;20043;-63
2022/05/18 07:45:48;;;;;;;9.50;5.75;;;33.40;79.70;;;;;;5112425;28;20048;-62
2022/05/18 07:48:15;;;;;;;9.05;5.53;;;33.50;78.80;;;;;;5113262;28;20100;-62
2022/05/18 07:50:41;;;;;;;11.25;5.90;;;33.80;78.70;;;;;;5094317;28;20052;-62
2022/05/18 07:53:06;;;;;;;8.10;5.50;;;33.90;77.50;;;;;;5094811;28;20058;-62
2022/05/18 07:55:33;;;;;;;10.90;6.20;;;33.70;77.00;;;;;;5108696;28;20040;-64
2022/05/18 07:57:58;;;;;;;10.60;4.95;;;33.50;77.20;;;;;;5112311;28;20048;-63
2022/05/18 08:00:25;;;;;;;10.20;5.13;;;33.40;75.60;;;;;;5077274;28;20062;-62
2022/05/18 08:02:52;;;;;;;6.78;4.10;;;33.40;73.70;;;;;;5111888;28;20484;-63
2022/05/18 08:05:18;;;;;;;7.45;4.65;;;33.70;73.50;;;;;;5076761;28;20059;-62
2022/05/18 08:07:47;;;;;;;7.30;4.20;;;34.10;72.80;;;;;;5112531;28;20039;-62
2022/05/18 08:15:44;;;;;;;7.75;3.80;;;35.30;73.10;;;;;;5097182;28;20424;-62
2022/05/18 08:18:11;;;;;;;8.10;3.55;;;35.60;71.50;;;;;;5112909;28;20059;-62
2022/05/18 08:20:41;;;;;;;7.43;3.80;;;36.00;71.40;;;;;;5094194;28;20048;-62
2022/05/18 08:23:08;;;;;;;6.65;4.45;;;36.00;68.90;;;;;;5094480;28;20039;-65
2022/05/18 08:25:34;;;;;;;8.45;3.70;;;35.90;69.10;;;;;;5112578;28;20044;-66
2022/05/18 08:28:01;;;;;;;6.50;4.45;;;36.10;69.00;;;;;;5094766;28;20136;-61
2022/05/18 08:30:30;;;;;;;7.03;4.22;;;36.10;68.90;;;;;;5094654;28;20035;-62
2022/05/18 08:32:58;;;;;;;8.93;4.60;;;36.20;69.20;;;;;;5111288;28;20050;-62
2022/05/18 08:35:24;;;;;;;6.50;3.50;;;36.20;68.80;;;;;;5112138;28;20515;-63
2022/05/18 08:37:50;;;;;;;6.18;3.80;;;36.40;68.30;;;;;;5093583;28;20123;-63
2022/05/18 08:40:49;;;;;;;6.07;3.65;;;36.50;66.90;;;;;;5112539;28;20059;-62
2022/05/18 08:43:38;;;;;;;5.45;2.90;;;36.90;66.20;;;;;;5094197;28;20047;-62
2022/05/18 08:46:45;;;;;;;4.85;2.50;;;37.00;64.60;;;;;;5112356;28;20101;-62
2022/05/18 08:49:27;;;;;;;6.88;2.38;;;36.80;65.30;;;;;;5112377;28;20055;-63
2022/05/18 08:52:26;;;;;;;9.73;2.72;;;36.90;63.90;;;;;;5111819;28;20067;-61
2022/05/18 08:55:13;;;;;;;5.07;2.38;;;37.00;62.90;;;;;;5093688;28;20059;-62
2022/05/18 08:57:46;;;;;;;6.30;2.50;;;36.70;63.50;;;;;;5111911;28;20096;-66
2022/05/18 09:00:23;;;;;;;3.78;2.60;;;36.60;62.80;;;;;;5112143;28;20096;-61
2022/05/18 09:03:18;;;;;;;5.10;2.50;;;36.60;62.90;;;;;;5092714;28;20051;-61
2022/05/18 09:05:52;;;;;;;6.25;2.47;;;36.60;63.20;;;;;;5097771;28;20116;-61
2022/05/18 09:08:25;;;;;;;4.68;2.72;;;36.70;63.40;;;;;;5111909;28;20052;-61
2022/05/18 09:10:58;;;;;;;6.28;2.97;;;36.60;63.40;;;;;;5111698;28;20047;-62
2022/05/18 09:13:23;;;;;;;7.20;2.70;;;36.60;63.00;;;;;;5093534;28;20126;-62
2022/05/18 09:16:13;;;;;;;5.93;2.70;;;36.40;62.30;;;;;;5093498;28;20465;-63
2022/05/18 09:18:48;;;;;;;4.70;2.85;;;36.50;62.30;;;;;;5111682;28;20138;-64
2022/05/18 09:21:43;;;;;;;5.95;2.75;;;36.60;62.10;;;;;;5112039;28;20048;-60
2022/05/18 09:24:41;;;;;;;6.68;3.00;;;36.60;61.90;;;;;;5111659;28;20051;-62
2022/05/18 09:27:21;;;;;;;5.13;2.95;;;36.60;62.60;;;;;;5092555;28;20083;-61
2022/05/18 09:30:34;;;;;;;6.70;3.20;;;36.70;61.10;;;;;;5111335;28;20043;-61
2022/05/18 09:33:23;;;;;;;5.82;2.80;;;36.50;61.80;;;;;;5020284;28;20054;-61
2022/05/18 09:36:07;;;;;;;8.10;3.80;;;36.40;61.70;;;;;;5077525;28;20091;-62
2022/05/18 09:38:43;;;;;;;6.40;2.95;;;36.10;61.20;;;;;;5111424;28;20110;-63
2022/05/18 09:41:16;;;;;;;6.22;3.28;;;36.10;61.80;;;;;;5111393;28;20425;-63
2022/05/18 09:44:08;;;;;;;6.15;3.47;;;36.40;61.60;;;;;;5093564;28;20048;-66
2022/05/18 09:46:35;;;;;;;8.07;3.83;;;36.20;61.80;;;;;;5099398;28;20134;-62
2022/05/18 09:49:23;;;;;;;6.68;3.40;;;36.10;62.40;;;;;;5109484;28;20141;-63
2022/05/18 09:51:50;;;;;;;6.25;3.80;;;35.80;62.50;;;;;;5110933;28;20119;-62
2022/05/18 09:54:16;;;;;;;6.03;3.50;;;35.50;62.40;;;;;;5111103;28;20124;-62
2022/05/18 09:56:46;;;;;;;7.63;4.50;;;35.30;62.80;;;;;;5111082;28;20241;-61
2022/05/18 09:59:18;;;;;;;6.47;4.07;;;35.00;63.10;;;;;;5111499;28;20082;-61
2022/05/18 10:07:53;;;;;;;9.25;4.38;;;34.20;64.80;;;;;;5111366;28;20066;-62
2022/05/18 10:10:14;;;;;;;9.23;5.45;;;34.30;65.30;;;;;;5089812;28;20069;-62
2022/05/18 10:12:46;;;;;;;9.07;5.18;;;34.20;64.90;;;;;;5111517;28;20122;-62
2022/05/18 10:15:29;;;;;;;7.00;4.15;;;34.00;64.70;;;;;;5096785;28;20209;-62
2022/05/18 10:18:23;;;;;;;6.82;4.40;;;33.80;65.10;;;;;;5114650;28;20044;-62
2022/05/18 10:21:20;;;;;;;8.45;3.92;;;33.60;65.80;;;;;;5096857;28;20130;-64
2022/05/18 10:23:52;;;;;;;8.73;4.07;;;33.50;64.90;;;;;;5114524;28;20108;-61
2022/05/18 10:26:38;;;;;;;7.50;4.17;;;33.30;64.80;;;;;;5079710;28;20051;-62
2022/05/18 10:29:19;;;;;;;8.25;3.88;;;33.10;64.70;;;;;;5113981;28;20126;-61
2022/05/18 10:32:10;;;;;;;7.70;4.28;;;33.00;66.40;;;;;;5114636;28;20052;-61
2022/05/18 10:34:45;;;;;;;8.50;4.18;;;32.90;65.20;;;;;;5096802;28;20055;-61
2022/05/18 10:37:22;;;;;;;14.63;4.93;;;32.80;66.50;;;;;;5114015;28;20134;-61
2022/05/18 10:39:48;;;;;;;7.30;4.43;;;32.80;65.60;;;;;;5096531;28;20047;-61
2022/05/18 10:42:19;;;;;;;9.20;4.53;;;33.00;66.30;;;;;;5096295;28;20047;-62
2022/05/18 10:44:45;;;;;;;9.32;3.90;;;33.00;66.00;;;;;;5096507;28;20039;-61
2022/05/18 10:47:38;;;;;;;9.35;4.85;;;33.00;66.70;;;;;;5114172;28;20055;-61
2022/05/18 10:50:20;;;;;;;9.10;4.40;;;33.00;66.50;;;;;;5083119;28;20067;-62
2022/05/18 10:52:46;;;;;;;19.65;6.90;;;33.10;67.90;;;;;;5114361;28;20051;-60
2022/05/18 10:55:16;;;;;;;8.77;6.57;;;33.10;68.20;;;;;;5114068;28;20539;-62
2022/05/18 10:58:05;;;;;;;12.23;6.80;;;32.90;67.70;;;;;;5114184;28;20043;-61
2022/05/18 11:00:51;;;;;;;12.15;6.93;;;32.80;69.30;;;;;;5096426;28;20047;-62
2022/05/18 11:03:53;;;;;;;8.45;6.05;;;32.60;68.40;;;;;;5096052;28;20047;-61
2022/05/18 11:06:29;;;;;;;12.38;6.35;;;32.50;68.70;;;;;;5114079;28;20049;-61
2022/05/18 11:09:00;;;;;;;8.15;4.80;;;32.20;69.20;;;;;;5112173;28;20039;-62
2022/05/18 11:11:52;;;;;;;8.45;5.55;;;32.30;69.30;;;;;;5113859;28;20507;-62
2022/05/18 11:14:39;;;;;;;11.05;6.50;;;32.30;68.70;;;;;;5095288;28;20448;-62
2022/05/18 11:17:29;;;;;;;10.82;7.03;;;32.30;69.30;;;;;;5095148;28;20050;-61
2022/05/18 11:20:29;;;;;;;10.65;6.57;;;32.20;69.10;;;;;;5095837;28;20047;-64
2022/05/18 11:22:58;;;;;;;8.88;6.18;;;32.20;70.00;;;;;;5095503;28;20100;-64
2022/05/18 11:25:54;;;;;;;11.25;6.68;;;32.20;70.10;;;;;;5112450;28;20058;-60
2022/05/18 11:28:58;;;;;;;11.10;6.47;;;32.20;69.90;;;;;;5095728;28;20101;-60
2022/05/18 11:31:41;;;;;;;10.23;7.18;;;32.30;70.90;;;;;;5113741;28;20397;-62
2022/05/18 11:34:45;;;;;;;10.60;6.28;;;32.40;69.40;;;;;;5113175;28;20082;-63
2022/05/18 11:37:48;;;;;;;10.05;6.70;;;32.30;69.60;;;;;;5113258;28;20051;-61
2022/05/18 11:40:29;;;;;;;11.15;7.85;;;32.20;69.80;;;;;;5094958;28;20050;-63
2022/05/18 11:43:29;;;;;;;8.65;6.70;;;32.10;70.40;;;;;;5113672;28;20444;-61
2022/05/18 11:46:36;;;;;;;11.30;7.70;;;32.00;71.60;;;;;;5113494;28;20089;-62
2022/05/18 11:49:20;;;;;;;13.32;7.43;;;32.00;71.10;;;;;;4994167;28;20181;-61
2022/05/18 11:52:23;;;;;;;9.90;7.40;;;32.00;71.80;;;;;;5104447;28;20047;-63
2022/05/18 11:55:29;;;;;;;12.70;7.10;;;32.00;71.80;;;;;;5095434;28;20134;-62
2022/05/18 11:58:47;;;;;;;11.13;7.32;;;32.00;71.80;;;;;;5107896;28;20051;-61
2022/05/18 12:01:27;;;;;;;12.93;7.78;;;32.10;71.10;;;;;;5112868;28;20043;-62
2022/05/18 12:04:06;;;;;;;11.00;6.65;;;32.20;72.10;;;;;;5113756;28;20050;-61
2022/05/18 12:06:52;;;;;;;9.27;6.78;;;32.30;72.80;;;;;;5112838;28;20043;-61
2022/05/18 12:10:13;;;;;;;10.88;7.20;;;32.30;72.10;;;;;;5112527;28;20055;-60
2022/05/18 12:13:03;;;;;;;11.73;8.68;;;32.30;72.70;;;;;;5087219;28;20492;-61
2022/05/18 12:15:39;;;;;;;10.52;7.45;;;32.00;71.90;;;;;;5113046;28;20054;-63
2022/05/18 12:18:12;;;;;;;10.27;7.38;;;32.00;72.30;;;;;;5112345;28;20044;-62
2022/05/18 12:20:41;;;;;;;;;;;31.90;73.00;;;;;;5113232;28;20047;-62
2022/05/18 12:23:11;;;;;;;10.55;6.63;;;31.90;72.90;;;;;;5077427;28;19926;-61
2022/05/18 12:25:38;;;;;;;11.32;7.13;;;31.90;72.90;;;;;;5094785;28;20146;-60
2022/05/18 12:28:08;;;;;;;13.63;7.97;;;32.00;72.90;;;;;;5112297;28;20044;-62
2022/05/18 12:30:36;;;;;;;14.35;7.75;;;32.00;72.80;;;;;;5094298;28;20048;-62
2022/05/18 12:33:04;;;;;;;9.77;7.35;;;32.10;72.50;;;;;;5112396;28;20050;-64
2022/05/18 12:35:35;;;;;;;7.68;5.43;;;32.00;72.50;;;;;;5094603;28;20096;-61
2022/05/18 12:38:11;;;;;;;11.20;5.82;;;32.00;72.80;;;;;;5112329;28;20058;-61
2022/05/18 12:40:53;;;;;;;8.70;5.60;;;32.00;72.90;;;;;;5077366;28;20090;-63
2022/05/18 12:43:27;;;;;;;13.18;7.88;;;32.10;72.80;;;;;;5112166;28;20039;-61
2022/05/18 12:46:05;;;;;;;10.18;8.00;;;32.00;72.80;;;;;;5112242;28;20116;-61
2022/05/18 12:48:36;;;;;;;12.68;7.78;;;32.00;73.20;;;;;;5112276;28;20047;-60
2022/05/18 12:51:15;;;;;;;8.52;5.90;;;31.90;73.30;;;;;;5076397;28;20044;-61
2022/05/18 12:53:50;;;;;;;8.90;6.03;;;31.80;73.50;;;;;;5111274;28;20108;-61
2022/05/18 12:56:20;;;;;;;11.60;6.72;;;31.60;73.70;;;;;;5093258;28;20055;-62
2022/05/18 12:58:52;;;;;;;8.55;6.18;;;31.50;74.20;;;;;;5112273;28;20048;-61
2022/05/18 13:01:20;;;;;;;10.35;6.30;;;31.20;74.60;;;;;;5076759;28;20069;-60
2022/05/18 13:04:08;;;;;;;11.20;6.47;;;31.00;75.30;;;;;;5111803;28;20046;-61
2022/05/18 13:06:39;;;;;;;10.02;7.63;;;30.80;76.00;;;;;;5112199;28;20047;-61
2022/05/18 13:09:36;;;;;;;17.58;14.45;;;30.60;77.30;;;;;;5111720;28;20048;-61
2022/05/18 13:12:17;;;;;;;24.35;15.80;;;30.20;78.20;;;;;;5111195;28;20051;-64
2022/05/18 13:15:11;;;;;;;23.42;16.10;;;30.10;78.80;;;;;;5111967;28;20039;-60
2022/05/18 13:18:01;;;;;;;;;;;29.70;79.90;;;;;;5094143;28;20105;-61
2022/05/18 13:20:27;;;;;;;22.55;17.00;;;29.10;80.20;;;;;;5097907;28;20040;-61
2022/05/18 13:23:03;;;;;;;23.27;16.10;;;28.70;81.00;;;;;;5092928;28;20185;-60